sensor_id;sensor_type;location;lat;lon;timestamp;P1;durP1;ratioP1;P2;durP2;ratioP2
43552;SDS011;29153;42.696;23.218;2022-12-07T00:01:23;37.08;;;16.23;;
43552;SDS011;29153;42.696;23.218;2022-12-07T00:03:53;37.48;;;16.77;;
43552;SDS011;29153;42.696;23.218;2022-12-07T00:06:26;37.53;;;15.72;;
43552;SDS011;29153;42.696;23.218;2022-12-07T00:20:41;33.02;;;16.23;;
43552;SDS011;29153;42.696;23.218;2022-12-07T00:23:09;34.18;;;15.78;;
43552;SDS011;29153;42.696;23.218;2022-12-07T00:25:36;31.65;;;14.60;;
43552;SDS011;29153;42.696;23.218;2022-12-07T00:28:04;32.88;;;14.25;;
43552;SDS011;29153;42.696;23.218;2022-12-07T00:30:32;30.27;;;13.90;;
43552;SDS011;29153;42.696;23.218;2022-12-07T00:32:59;31.68;;;13.58;;
43552;SDS011;29153;42.696;23.218;2022-12-07T00:35:27;35.60;;;15.90;;
43552;SDS011;29153;42.696;23.218;2022-12-07T00:37:55;39.85;;;17.80;;
43552;SDS011;29153;42.696;23.218;2022-12-07T00:40:22;34.70;;;16.07;;
43552;SDS011;29153;42.696;23.218;2022-12-07T00:42:50;37.03;;;16.70;;
43552;SDS011;29153;42.696;23.218;2022-12-07T00:45:17;37.90;;;15.68;;
43552;SDS011;29153;42.696;23.218;2022-12-07T00:47:45;42.23;;;17.55;;
43552;SDS011;29153;42.696;23.218;2022-12-07T00:50:13;33.40;;;14.23;;
43552;SDS011;29153;42.696;23.218;2022-12-07T00:52:40;42.40;;;15.78;;
43552;SDS011;29153;42.696;23.218;2022-12-07T00:55:08;68.97;;;28.70;;
43552;SDS011;29153;42.696;23.218;2022-12-07T00:57:35;45.67;;;20.82;;
43552;SDS011;29153;42.696;23.218;2022-12-07T01:00:03;41.23;;;17.92;;
43552;SDS011;29153;42.696;23.218;2022-12-07T01:02:31;38.70;;;16.60;;
43552;SDS011;29153;42.696;23.218;2022-12-07T01:04:58;74.97;;;30.70;;
43552;SDS011;29153;42.696;23.218;2022-12-07T01:07:26;44.60;;;21.17;;
43552;SDS011;29153;42.696;23.218;2022-12-07T01:09:54;40.80;;;16.57;;
43552;SDS011;29153;42.696;23.218;2022-12-07T01:12:21;35.83;;;16.55;;
43552;SDS011;29153;42.696;23.218;2022-12-07T01:14:49;35.35;;;14.78;;
43552;SDS011;29153;42.696;23.218;2022-12-07T01:17:16;32.40;;;15.23;;
43552;SDS011;29153;42.696;23.218;2022-12-07T01:19:44;29.80;;;14.00;;
43552;SDS011;29153;42.696;23.218;2022-12-07T01:22:11;33.53;;;14.83;;
43552;SDS011;29153;42.696;23.218;2022-12-07T01:24:39;32.45;;;14.68;;
43552;SDS011;29153;42.696;23.218;2022-12-07T01:27:07;31.25;;;13.72;;
43552;SDS011;29153;42.696;23.218;2022-12-07T01:29:34;30.27;;;13.70;;
43552;SDS011;29153;42.696;23.218;2022-12-07T01:32:02;31.48;;;13.83;;
43552;SDS011;29153;42.696;23.218;2022-12-07T01:34:29;33.35;;;13.48;;
43552;SDS011;29153;42.696;23.218;2022-12-07T01:36:57;29.10;;;14.13;;
43552;SDS011;29153;42.696;23.218;2022-12-07T01:39:24;34.13;;;15.20;;
43552;SDS011;29153;42.696;23.218;2022-12-07T01:41:52;39.03;;;15.98;;
43552;SDS011;29153;42.696;23.218;2022-12-07T01:44:21;39.95;;;15.78;;
43552;SDS011;29153;42.696;23.218;2022-12-07T01:46:56;33.30;;;15.43;;
43552;SDS011;29153;42.696;23.218;2022-12-07T01:49:30;43.85;;;17.32;;
43552;SDS011;29153;42.696;23.218;2022-12-07T01:52:24;35.92;;;14.63;;
43552;SDS011;29153;42.696;23.218;2022-12-07T01:54:57;34.50;;;15.40;;
43552;SDS011;29153;42.696;23.218;2022-12-07T01:57:27;33.50;;;14.68;;
43552;SDS011;29153;42.696;23.218;2022-12-07T01:59:55;33.18;;;14.45;;
43552;SDS011;29153;42.696;23.218;2022-12-07T02:02:27;34.27;;;14.40;;
43552;SDS011;29153;42.696;23.218;2022-12-07T02:05:01;26.97;;;12.30;;
43552;SDS011;29153;42.696;23.218;2022-12-07T02:07:30;35.63;;;13.60;;
43552;SDS011;29153;42.696;23.218;2022-12-07T02:10:13;31.25;;;13.28;;
43552;SDS011;29153;42.696;23.218;2022-12-07T02:12:42;29.30;;;12.28;;
43552;SDS011;29153;42.696;23.218;2022-12-07T02:15:12;30.95;;;11.93;;
43552;SDS011;29153;42.696;23.218;2022-12-07T02:23:01;23.92;;;11.60;;
43552;SDS011;29153;42.696;23.218;2022-12-07T02:25:58;27.82;;;10.72;;
43552;SDS011;29153;42.696;23.218;2022-12-07T02:28:33;30.85;;;12.05;;
43552;SDS011;29153;42.696;23.218;2022-12-07T02:31:18;26.68;;;12.43;;
43552;SDS011;29153;42.696;23.218;2022-12-07T02:33:54;23.15;;;11.00;;
43552;SDS011;29153;42.696;23.218;2022-12-07T02:36:23;29.80;;;12.88;;
43552;SDS011;29153;42.696;23.218;2022-12-07T02:39:00;28.25;;;11.45;;
43552;SDS011;29153;42.696;23.218;2022-12-07T02:41:33;24.05;;;10.95;;
43552;SDS011;29153;42.696;23.218;2022-12-07T02:44:06;26.80;;;11.48;;
43552;SDS011;29153;42.696;23.218;2022-12-07T02:46:40;29.95;;;11.68;;
43552;SDS011;29153;42.696;23.218;2022-12-07T02:49:09;25.65;;;10.63;;
43552;SDS011;29153;42.696;23.218;2022-12-07T02:51:43;28.12;;;11.97;;
43552;SDS011;29153;42.696;23.218;2022-12-07T02:54:19;28.12;;;12.23;;
43552;SDS011;29153;42.696;23.218;2022-12-07T02:56:56;27.90;;;12.28;;
43552;SDS011;29153;42.696;23.218;2022-12-07T02:59:29;29.15;;;10.98;;
43552;SDS011;29153;42.696;23.218;2022-12-07T03:02:23;25.82;;;10.88;;
43552;SDS011;29153;42.696;23.218;2022-12-07T03:07:42;25.62;;;10.72;;
43552;SDS011;29153;42.696;23.218;2022-12-07T03:13:22;25.50;;;11.75;;
43552;SDS011;29153;42.696;23.218;2022-12-07T03:15:58;30.48;;;13.65;;
43552;SDS011;29153;42.696;23.218;2022-12-07T03:18:28;30.75;;;12.88;;
43552;SDS011;29153;42.696;23.218;2022-12-07T03:20:58;27.62;;;12.03;;
43552;SDS011;29153;42.696;23.218;2022-12-07T03:23:27;30.52;;;12.13;;
43552;SDS011;29153;42.696;23.218;2022-12-07T03:25:58;29.60;;;11.80;;
43552;SDS011;29153;42.696;23.218;2022-12-07T03:28:30;26.77;;;11.20;;
43552;SDS011;29153;42.696;23.218;2022-12-07T03:31:01;29.77;;;12.60;;
43552;SDS011;29153;42.696;23.218;2022-12-07T03:33:35;29.80;;;11.20;;
43552;SDS011;29153;42.696;23.218;2022-12-07T03:36:26;25.62;;;10.65;;
43552;SDS011;29153;42.696;23.218;2022-12-07T03:41:41;24.57;;;11.30;;
43552;SDS011;29153;42.696;23.218;2022-12-07T03:44:09;30.25;;;12.55;;
43552;SDS011;29153;42.696;23.218;2022-12-07T03:46:39;27.20;;;11.10;;
43552;SDS011;29153;42.696;23.218;2022-12-07T03:49:18;30.77;;;11.85;;
43552;SDS011;29153;42.696;23.218;2022-12-07T03:54:41;32.45;;;11.83;;
43552;SDS011;29153;42.696;23.218;2022-12-07T03:57:10;32.30;;;12.15;;
43552;SDS011;29153;42.696;23.218;2022-12-07T03:59:39;31.80;;;13.43;;
43552;SDS011;29153;42.696;23.218;2022-12-07T04:02:08;25.65;;;9.93;;
43552;SDS011;29153;42.696;23.218;2022-12-07T04:04:38;29.12;;;11.55;;
43552;SDS011;29153;42.696;23.218;2022-12-07T04:07:06;26.68;;;10.98;;
43552;SDS011;29153;42.696;23.218;2022-12-07T04:09:34;29.98;;;10.72;;
43552;SDS011;29153;42.696;23.218;2022-12-07T04:12:01;29.60;;;11.80;;
43552;SDS011;29153;42.696;23.218;2022-12-07T04:14:29;26.52;;;11.00;;
43552;SDS011;29153;42.696;23.218;2022-12-07T04:16:57;34.18;;;12.28;;
43552;SDS011;29153;42.696;23.218;2022-12-07T04:19:26;31.65;;;12.03;;
43552;SDS011;29153;42.696;23.218;2022-12-07T04:21:56;27.65;;;11.15;;
43552;SDS011;29153;42.696;23.218;2022-12-07T04:24:25;25.48;;;11.10;;
43552;SDS011;29153;42.696;23.218;2022-12-07T04:26:53;30.12;;;11.63;;
43552;SDS011;29153;42.696;23.218;2022-12-07T04:29:21;26.27;;;11.12;;
43552;SDS011;29153;42.696;23.218;2022-12-07T04:31:49;28.60;;;12.00;;
43552;SDS011;29153;42.696;23.218;2022-12-07T04:34:18;27.35;;;11.30;;
43552;SDS011;29153;42.696;23.218;2022-12-07T04:36:46;27.32;;;11.35;;
43552;SDS011;29153;42.696;23.218;2022-12-07T04:39:24;32.35;;;12.82;;
43552;SDS011;29153;42.696;23.218;2022-12-07T04:41:54;26.27;;;11.18;;
43552;SDS011;29153;42.696;23.218;2022-12-07T04:44:23;34.23;;;12.45;;
43552;SDS011;29153;42.696;23.218;2022-12-07T04:46:51;27.35;;;11.90;;
43552;SDS011;29153;42.696;23.218;2022-12-07T04:49:20;31.23;;;12.90;;
43552;SDS011;29153;42.696;23.218;2022-12-07T04:51:48;30.10;;;13.32;;
43552;SDS011;29153;42.696;23.218;2022-12-07T04:54:16;32.83;;;14.53;;
43552;SDS011;29153;42.696;23.218;2022-12-07T04:56:44;32.60;;;13.95;;
43552;SDS011;29153;42.696;23.218;2022-12-07T04:59:12;33.05;;;13.38;;
43552;SDS011;29153;42.696;23.218;2022-12-07T05:01:40;30.55;;;12.43;;
43552;SDS011;29153;42.696;23.218;2022-12-07T05:04:08;32.08;;;14.03;;
43552;SDS011;29153;42.696;23.218;2022-12-07T05:06:36;33.13;;;14.13;;
43552;SDS011;29153;42.696;23.218;2022-12-07T05:09:04;33.65;;;13.62;;
43552;SDS011;29153;42.696;23.218;2022-12-07T05:11:32;36.25;;;17.42;;
43552;SDS011;29153;42.696;23.218;2022-12-07T05:14:10;29.20;;;13.45;;
43552;SDS011;29153;42.696;23.218;2022-12-07T05:16:43;29.23;;;14.07;;
43552;SDS011;29153;42.696;23.218;2022-12-07T05:19:13;33.95;;;14.10;;
43552;SDS011;29153;42.696;23.218;2022-12-07T05:21:40;35.50;;;16.90;;
43552;SDS011;29153;42.696;23.218;2022-12-07T05:24:09;35.88;;;16.45;;
43552;SDS011;29153;42.696;23.218;2022-12-07T05:26:38;33.08;;;14.73;;
43552;SDS011;29153;42.696;23.218;2022-12-07T05:29:07;33.08;;;14.47;;
43552;SDS011;29153;42.696;23.218;2022-12-07T05:31:36;33.42;;;15.08;;
43552;SDS011;29153;42.696;23.218;2022-12-07T05:34:04;34.30;;;15.83;;
43552;SDS011;29153;42.696;23.218;2022-12-07T05:36:31;37.80;;;16.37;;
43552;SDS011;29153;42.696;23.218;2022-12-07T05:38:59;35.78;;;15.13;;
43552;SDS011;29153;42.696;23.218;2022-12-07T05:41:26;31.95;;;14.73;;
43552;SDS011;29153;42.696;23.218;2022-12-07T05:44:12;33.02;;;13.32;;
43552;SDS011;29153;42.696;23.218;2022-12-07T05:46:40;36.15;;;14.78;;
43552;SDS011;29153;42.696;23.218;2022-12-07T05:49:08;33.67;;;14.98;;
43552;SDS011;29153;42.696;23.218;2022-12-07T05:51:35;34.58;;;13.93;;
43552;SDS011;29153;42.696;23.218;2022-12-07T05:54:03;30.10;;;13.72;;
43552;SDS011;29153;42.696;23.218;2022-12-07T05:56:30;29.65;;;12.45;;
43552;SDS011;29153;42.696;23.218;2022-12-07T05:58:58;29.05;;;12.73;;
43552;SDS011;29153;42.696;23.218;2022-12-07T06:01:43;26.97;;;12.73;;
43552;SDS011;29153;42.696;23.218;2022-12-07T06:04:11;24.75;;;11.83;;
43552;SDS011;29153;42.696;23.218;2022-12-07T06:06:38;32.67;;;12.35;;
43552;SDS011;29153;42.696;23.218;2022-12-07T06:09:06;31.45;;;12.98;;
43552;SDS011;29153;42.696;23.218;2022-12-07T06:11:34;28.10;;;10.65;;
43552;SDS011;29153;42.696;23.218;2022-12-07T06:14:19;31.10;;;12.78;;
43552;SDS011;29153;42.696;23.218;2022-12-07T06:16:47;33.90;;;13.48;;
43552;SDS011;29153;42.696;23.218;2022-12-07T06:19:15;32.10;;;13.25;;
43552;SDS011;29153;42.696;23.218;2022-12-07T06:21:42;39.42;;;16.97;;
43552;SDS011;29153;42.696;23.218;2022-12-07T06:24:16;34.67;;;14.73;;
43552;SDS011;29153;42.696;23.218;2022-12-07T06:26:40;35.25;;;13.13;;
43552;SDS011;29153;42.696;23.218;2022-12-07T06:29:07;29.05;;;12.07;;
43552;SDS011;29153;42.696;23.218;2022-12-07T06:31:35;29.55;;;12.35;;
43552;SDS011;29153;42.696;23.218;2022-12-07T06:34:04;30.90;;;13.83;;
43552;SDS011;29153;42.696;23.218;2022-12-07T06:36:37;31.55;;;13.38;;
43552;SDS011;29153;42.696;23.218;2022-12-07T06:39:04;39.85;;;16.57;;
43552;SDS011;29153;42.696;23.218;2022-12-07T06:41:37;36.70;;;15.63;;
43552;SDS011;29153;42.696;23.218;2022-12-07T06:44:05;37.48;;;15.45;;
43552;SDS011;29153;42.696;23.218;2022-12-07T06:46:33;38.78;;;15.40;;
43552;SDS011;29153;42.696;23.218;2022-12-07T06:49:01;39.63;;;16.15;;
43552;SDS011;29153;42.696;23.218;2022-12-07T06:51:30;36.77;;;13.95;;
43552;SDS011;29153;42.696;23.218;2022-12-07T06:53:58;33.75;;;14.78;;
43552;SDS011;29153;42.696;23.218;2022-12-07T06:56:26;35.63;;;15.00;;
43552;SDS011;29153;42.696;23.218;2022-12-07T06:58:54;41.45;;;15.30;;
43552;SDS011;29153;42.696;23.218;2022-12-07T07:01:21;38.80;;;15.13;;
43552;SDS011;29153;42.696;23.218;2022-12-07T07:03:49;34.65;;;15.45;;
43552;SDS011;29153;42.696;23.218;2022-12-07T07:06:17;42.60;;;14.30;;
43552;SDS011;29153;42.696;23.218;2022-12-07T07:08:45;40.78;;;14.70;;
43552;SDS011;29153;42.696;23.218;2022-12-07T07:11:13;43.92;;;15.20;;
43552;SDS011;29153;42.696;23.218;2022-12-07T07:13:40;42.98;;;14.75;;
43552;SDS011;29153;42.696;23.218;2022-12-07T07:16:08;50.88;;;19.32;;
43552;SDS011;29153;42.696;23.218;2022-12-07T07:18:36;44.25;;;16.97;;
43552;SDS011;29153;42.696;23.218;2022-12-07T07:21:09;47.53;;;17.57;;
43552;SDS011;29153;42.696;23.218;2022-12-07T07:23:33;35.10;;;13.43;;
43552;SDS011;29153;42.696;23.218;2022-12-07T07:26:02;38.92;;;14.30;;
43552;SDS011;29153;42.696;23.218;2022-12-07T07:28:29;31.50;;;14.65;;
43552;SDS011;29153;42.696;23.218;2022-12-07T07:30:57;36.90;;;14.15;;
43552;SDS011;29153;42.696;23.218;2022-12-07T07:33:25;35.55;;;13.90;;
43552;SDS011;29153;42.696;23.218;2022-12-07T07:35:53;40.43;;;14.60;;
43552;SDS011;29153;42.696;23.218;2022-12-07T07:38:20;43.40;;;18.30;;
43552;SDS011;29153;42.696;23.218;2022-12-07T07:40:48;45.20;;;17.35;;
43552;SDS011;29153;42.696;23.218;2022-12-07T07:43:15;37.42;;;14.63;;
43552;SDS011;29153;42.696;23.218;2022-12-07T07:45:44;31.48;;;12.68;;
43552;SDS011;29153;42.696;23.218;2022-12-07T07:48:11;40.78;;;13.58;;
43552;SDS011;29153;42.696;23.218;2022-12-07T07:50:39;36.00;;;13.50;;
43552;SDS011;29153;42.696;23.218;2022-12-07T07:53:06;36.08;;;14.98;;
43552;SDS011;29153;42.696;23.218;2022-12-07T07:55:34;41.13;;;16.23;;
43552;SDS011;29153;42.696;23.218;2022-12-07T07:58:01;38.45;;;14.53;;
43552;SDS011;29153;42.696;23.218;2022-12-07T08:00:29;48.02;;;16.48;;
43552;SDS011;29153;42.696;23.218;2022-12-07T08:02:57;38.42;;;15.40;;
43552;SDS011;29153;42.696;23.218;2022-12-07T08:05:25;39.63;;;15.03;;
43552;SDS011;29153;42.696;23.218;2022-12-07T08:07:52;38.33;;;14.70;;
43552;SDS011;29153;42.696;23.218;2022-12-07T08:10:20;37.40;;;14.07;;
43552;SDS011;29153;42.696;23.218;2022-12-07T08:12:47;35.90;;;14.98;;
43552;SDS011;29153;42.696;23.218;2022-12-07T08:15:33;42.48;;;17.30;;
43552;SDS011;29153;42.696;23.218;2022-12-07T08:18:02;35.73;;;14.78;;
43552;SDS011;29153;42.696;23.218;2022-12-07T08:20:31;40.12;;;15.05;;
43552;SDS011;29153;42.696;23.218;2022-12-07T08:23:00;40.08;;;14.68;;
43552;SDS011;29153;42.696;23.218;2022-12-07T08:25:28;38.08;;;16.37;;
43552;SDS011;29153;42.696;23.218;2022-12-07T08:27:55;35.88;;;13.10;;
43552;SDS011;29153;42.696;23.218;2022-12-07T08:30:23;34.63;;;12.70;;
43552;SDS011;29153;42.696;23.218;2022-12-07T08:32:51;38.83;;;14.47;;
43552;SDS011;29153;42.696;23.218;2022-12-07T08:35:18;38.73;;;14.68;;
43552;SDS011;29153;42.696;23.218;2022-12-07T08:37:46;42.00;;;16.55;;
43552;SDS011;29153;42.696;23.218;2022-12-07T08:40:14;38.45;;;15.32;;
43552;SDS011;29153;42.696;23.218;2022-12-07T08:42:43;50.83;;;17.40;;
43552;SDS011;29153;42.696;23.218;2022-12-07T08:45:14;46.88;;;17.92;;
43552;SDS011;29153;42.696;23.218;2022-12-07T08:47:47;50.83;;;20.70;;
43552;SDS011;29153;42.696;23.218;2022-12-07T08:50:19;55.03;;;23.77;;
43552;SDS011;29153;42.696;23.218;2022-12-07T08:52:51;55.48;;;22.32;;
43552;SDS011;29153;42.696;23.218;2022-12-07T08:55:21;56.68;;;21.77;;
43552;SDS011;29153;42.696;23.218;2022-12-07T08:57:49;48.92;;;21.33;;
43552;SDS011;29153;42.696;23.218;2022-12-07T09:00:17;45.17;;;19.52;;
43552;SDS011;29153;42.696;23.218;2022-12-07T09:02:45;47.62;;;20.88;;
43552;SDS011;29153;42.696;23.218;2022-12-07T09:05:13;51.68;;;22.07;;
43552;SDS011;29153;42.696;23.218;2022-12-07T09:07:44;60.03;;;26.02;;
43552;SDS011;29153;42.696;23.218;2022-12-07T09:10:14;50.10;;;22.27;;
43552;SDS011;29153;42.696;23.218;2022-12-07T09:12:42;50.40;;;20.80;;
43552;SDS011;29153;42.696;23.218;2022-12-07T09:15:10;56.58;;;22.90;;
43552;SDS011;29153;42.696;23.218;2022-12-07T09:17:37;58.42;;;27.58;;
43552;SDS011;29153;42.696;23.218;2022-12-07T09:20:05;78.83;;;35.98;;
43552;SDS011;29153;42.696;23.218;2022-12-07T09:22:33;52.23;;;20.48;;
43552;SDS011;29153;42.696;23.218;2022-12-07T09:25:01;58.70;;;26.97;;
43552;SDS011;29153;42.696;23.218;2022-12-07T09:27:30;50.20;;;23.12;;
43552;SDS011;29153;42.696;23.218;2022-12-07T09:29:57;52.58;;;21.40;;
43552;SDS011;29153;42.696;23.218;2022-12-07T09:32:25;48.38;;;21.70;;
43552;SDS011;29153;42.696;23.218;2022-12-07T09:34:53;87.10;;;41.23;;
43552;SDS011;29153;42.696;23.218;2022-12-07T09:37:20;56.73;;;22.87;;
43552;SDS011;29153;42.696;23.218;2022-12-07T09:39:48;55.25;;;26.15;;
43552;SDS011;29153;42.696;23.218;2022-12-07T09:42:35;54.75;;;25.08;;
43552;SDS011;29153;42.696;23.218;2022-12-07T09:44:58;51.25;;;22.22;;
43552;SDS011;29153;42.696;23.218;2022-12-07T09:47:28;50.67;;;22.87;;
43552;SDS011;29153;42.696;23.218;2022-12-07T09:49:59;50.43;;;22.55;;
43552;SDS011;29153;42.696;23.218;2022-12-07T09:52:27;52.98;;;23.05;;
43552;SDS011;29153;42.696;23.218;2022-12-07T09:54:56;51.70;;;25.23;;
43552;SDS011;29153;42.696;23.218;2022-12-07T09:57:28;54.93;;;23.35;;
43552;SDS011;29153;42.696;23.218;2022-12-07T10:00:00;49.60;;;22.22;;
43552;SDS011;29153;42.696;23.218;2022-12-07T10:05:09;50.88;;;21.95;;
43552;SDS011;29153;42.696;23.218;2022-12-07T10:07:40;55.83;;;22.20;;
43552;SDS011;29153;42.696;23.218;2022-12-07T10:10:13;56.65;;;23.50;;
43552;SDS011;29153;42.696;23.218;2022-12-07T10:21:17;44.67;;;19.12;;
43552;SDS011;29153;42.696;23.218;2022-12-07T10:24:00;36.53;;;16.65;;
43552;SDS011;29153;42.696;23.218;2022-12-07T10:26:36;38.80;;;16.73;;
43552;SDS011;29153;42.696;23.218;2022-12-07T10:31:42;33.30;;;16.05;;
43552;SDS011;29153;42.696;23.218;2022-12-07T10:34:54;37.40;;;16.42;;
43552;SDS011;29153;42.696;23.218;2022-12-07T10:36:51;40.35;;;18.05;;
43552;SDS011;29153;42.696;23.218;2022-12-07T10:39:21;49.53;;;23.42;;
43552;SDS011;29153;42.696;23.218;2022-12-07T10:41:56;37.70;;;17.23;;
43552;SDS011;29153;42.696;23.218;2022-12-07T10:44:32;43.80;;;23.22;;
43552;SDS011;29153;42.696;23.218;2022-12-07T10:47:01;38.53;;;18.40;;
43552;SDS011;29153;42.696;23.218;2022-12-07T10:49:44;35.95;;;16.30;;
43552;SDS011;29153;42.696;23.218;2022-12-07T10:52:38;38.60;;;17.65;;
43552;SDS011;29153;42.696;23.218;2022-12-07T11:00:43;34.95;;;16.45;;
43552;SDS011;29153;42.696;23.218;2022-12-07T11:03:24;33.67;;;16.07;;
43552;SDS011;29153;42.696;23.218;2022-12-07T11:06:07;32.93;;;13.83;;
43552;SDS011;29153;42.696;23.218;2022-12-07T11:08:54;30.02;;;15.18;;
43552;SDS011;29153;42.696;23.218;2022-12-07T11:14:26;37.08;;;14.85;;
43552;SDS011;29153;42.696;23.218;2022-12-07T11:17:02;41.53;;;18.00;;
43552;SDS011;29153;42.696;23.218;2022-12-07T11:30:48;33.25;;;14.28;;
43552;SDS011;29153;42.696;23.218;2022-12-07T11:33:27;32.75;;;16.05;;
43552;SDS011;29153;42.696;23.218;2022-12-07T11:36:13;29.45;;;14.80;;
43552;SDS011;29153;42.696;23.218;2022-12-07T11:39:02;31.00;;;13.68;;
43552;SDS011;29153;42.696;23.218;2022-12-07T11:41:44;35.73;;;14.10;;
43552;SDS011;29153;42.696;23.218;2022-12-07T11:47:02;31.40;;;14.68;;
43552;SDS011;29153;42.696;23.218;2022-12-07T11:49:43;32.03;;;15.15;;
43552;SDS011;29153;42.696;23.218;2022-12-07T11:52:56;30.82;;;12.33;;
43552;SDS011;29153;42.696;23.218;2022-12-07T11:54:49;34.08;;;12.58;;
43552;SDS011;29153;42.696;23.218;2022-12-07T11:57:32;30.60;;;12.40;;
43552;SDS011;29153;42.696;23.218;2022-12-07T12:00:03;31.65;;;11.83;;
43552;SDS011;29153;42.696;23.218;2022-12-07T12:02:41;24.35;;;12.47;;
43552;SDS011;29153;42.696;23.218;2022-12-07T12:05:16;29.32;;;11.60;;
43552;SDS011;29153;42.696;23.218;2022-12-07T12:10:40;26.02;;;10.60;;
43552;SDS011;29153;42.696;23.218;2022-12-07T12:16:08;24.30;;;8.08;;
43552;SDS011;29153;42.696;23.218;2022-12-07T12:21:16;23.50;;;10.78;;
43552;SDS011;29153;42.696;23.218;2022-12-07T12:23:48;28.32;;;13.13;;
43552;SDS011;29153;42.696;23.218;2022-12-07T12:26:20;30.80;;;13.08;;
43552;SDS011;29153;42.696;23.218;2022-12-07T12:34:02;41.75;;;15.23;;
43552;SDS011;29153;42.696;23.218;2022-12-07T12:39:12;32.80;;;15.85;;
43552;SDS011;29153;42.696;23.218;2022-12-07T12:51:52;33.88;;;17.25;;
43552;SDS011;29153;42.696;23.218;2022-12-07T12:54:24;32.55;;;15.18;;
43552;SDS011;29153;42.696;23.218;2022-12-07T12:59:58;34.15;;;15.88;;
43552;SDS011;29153;42.696;23.218;2022-12-07T13:02:32;37.20;;;14.55;;
43552;SDS011;29153;42.696;23.218;2022-12-07T13:05:14;30.08;;;14.63;;
43552;SDS011;29153;42.696;23.218;2022-12-07T13:13:30;34.43;;;15.58;;
43552;SDS011;29153;42.696;23.218;2022-12-07T13:15:44;51.35;;;21.75;;
43552;SDS011;29153;42.696;23.218;2022-12-07T13:29:15;30.40;;;13.32;;
43552;SDS011;29153;42.696;23.218;2022-12-07T13:31:49;31.20;;;13.65;;
43552;SDS011;29153;42.696;23.218;2022-12-07T13:34:37;31.45;;;14.60;;
43552;SDS011;29153;42.696;23.218;2022-12-07T13:37:14;32.45;;;15.40;;
43552;SDS011;29153;42.696;23.218;2022-12-07T13:42:34;37.03;;;16.02;;
43552;SDS011;29153;42.696;23.218;2022-12-07T13:44:59;34.88;;;15.35;;
43552;SDS011;29153;42.696;23.218;2022-12-07T13:47:36;40.23;;;15.78;;
43552;SDS011;29153;42.696;23.218;2022-12-07T13:50:24;37.40;;;17.55;;
43552;SDS011;29153;42.696;23.218;2022-12-07T13:52:57;37.38;;;14.95;;
43552;SDS011;29153;42.696;23.218;2022-12-07T13:55:27;30.75;;;14.95;;
43552;SDS011;29153;42.696;23.218;2022-12-07T13:57:55;35.80;;;15.32;;
43552;SDS011;29153;42.696;23.218;2022-12-07T14:00:27;33.42;;;14.20;;
43552;SDS011;29153;42.696;23.218;2022-12-07T14:03:20;38.02;;;14.15;;
43552;SDS011;29153;42.696;23.218;2022-12-07T14:05:33;36.75;;;15.35;;
43552;SDS011;29153;42.696;23.218;2022-12-07T14:08:03;32.95;;;13.98;;
43552;SDS011;29153;42.696;23.218;2022-12-07T14:10:39;33.70;;;14.93;;
43552;SDS011;29153;42.696;23.218;2022-12-07T14:16:05;40.25;;;15.80;;
43552;SDS011;29153;42.696;23.218;2022-12-07T14:23:41;34.67;;;14.53;;
43552;SDS011;29153;42.696;23.218;2022-12-07T14:28:42;38.15;;;16.20;;
43552;SDS011;29153;42.696;23.218;2022-12-07T14:31:17;31.75;;;15.48;;
43552;SDS011;29153;42.696;23.218;2022-12-07T14:33:47;33.55;;;14.38;;
43552;SDS011;29153;42.696;23.218;2022-12-07T14:36:14;31.05;;;13.93;;
43552;SDS011;29153;42.696;23.218;2022-12-07T14:38:42;30.30;;;14.45;;
43552;SDS011;29153;42.696;23.218;2022-12-07T14:41:14;27.42;;;12.90;;
43552;SDS011;29153;42.696;23.218;2022-12-07T14:44:01;32.60;;;13.45;;
43552;SDS011;29153;42.696;23.218;2022-12-07T14:46:28;28.27;;;12.73;;
43552;SDS011;29153;42.696;23.218;2022-12-07T14:48:56;37.03;;;15.38;;
43552;SDS011;29153;42.696;23.218;2022-12-07T14:51:23;35.08;;;15.10;;
43552;SDS011;29153;42.696;23.218;2022-12-07T14:53:51;35.85;;;14.15;;
43552;SDS011;29153;42.696;23.218;2022-12-07T14:56:19;36.65;;;15.70;;
43552;SDS011;29153;42.696;23.218;2022-12-07T14:58:47;38.33;;;13.88;;
43552;SDS011;29153;42.696;23.218;2022-12-07T15:01:14;30.10;;;13.88;;
43552;SDS011;29153;42.696;23.218;2022-12-07T15:03:42;25.05;;;11.12;;
43552;SDS011;29153;42.696;23.218;2022-12-07T15:06:10;31.97;;;11.90;;
43552;SDS011;29153;42.696;23.218;2022-12-07T15:08:42;30.23;;;11.70;;
43552;SDS011;29153;42.696;23.218;2022-12-07T15:11:14;31.25;;;11.93;;
43552;SDS011;29153;42.696;23.218;2022-12-07T15:13:42;30.77;;;13.00;;
43552;SDS011;29153;42.696;23.218;2022-12-07T15:16:28;28.32;;;11.60;;
43552;SDS011;29153;42.696;23.218;2022-12-07T15:18:56;24.60;;;10.48;;
43552;SDS011;29153;42.696;23.218;2022-12-07T15:21:23;38.45;;;10.75;;
43552;SDS011;29153;42.696;23.218;2022-12-07T15:23:51;25.25;;;12.00;;
43552;SDS011;29153;42.696;23.218;2022-12-07T15:26:19;30.35;;;11.05;;
43552;SDS011;29153;42.696;23.218;2022-12-07T15:28:47;28.47;;;11.65;;
43552;SDS011;29153;42.696;23.218;2022-12-07T15:31:15;27.85;;;11.35;;
43552;SDS011;29153;42.696;23.218;2022-12-07T15:33:43;25.95;;;10.98;;
43552;SDS011;29153;42.696;23.218;2022-12-07T15:36:18;36.48;;;13.95;;
43552;SDS011;29153;42.696;23.218;2022-12-07T15:38:47;29.77;;;13.72;;
43552;SDS011;29153;42.696;23.218;2022-12-07T15:43:43;25.10;;;13.08;;
43552;SDS011;29153;42.696;23.218;2022-12-07T15:46:29;29.10;;;12.55;;
43552;SDS011;29153;42.696;23.218;2022-12-07T15:48:57;30.72;;;12.55;;
43552;SDS011;29153;42.696;23.218;2022-12-07T15:51:25;32.58;;;12.30;;
43552;SDS011;29153;42.696;23.218;2022-12-07T15:53:53;26.00;;;11.48;;
43552;SDS011;29153;42.696;23.218;2022-12-07T15:56:20;24.43;;;10.50;;
43552;SDS011;29153;42.696;23.218;2022-12-07T15:58:48;27.00;;;11.95;;
43552;SDS011;29153;42.696;23.218;2022-12-07T16:01:17;26.27;;;10.88;;
43552;SDS011;29153;42.696;23.218;2022-12-07T16:03:45;24.15;;;12.75;;
43552;SDS011;29153;42.696;23.218;2022-12-07T16:06:16;31.25;;;11.48;;
43552;SDS011;29153;42.696;23.218;2022-12-07T16:08:45;22.82;;;9.65;;
43552;SDS011;29153;42.696;23.218;2022-12-07T16:11:13;22.45;;;10.65;;
43552;SDS011;29153;42.696;23.218;2022-12-07T16:13:41;27.70;;;10.85;;
43552;SDS011;29153;42.696;23.218;2022-12-07T16:16:10;21.77;;;10.45;;
43552;SDS011;29153;42.696;23.218;2022-12-07T16:18:39;21.48;;;9.75;;
43552;SDS011;29153;42.696;23.218;2022-12-07T16:21:06;19.73;;;10.93;;
43552;SDS011;29153;42.696;23.218;2022-12-07T16:23:36;21.87;;;8.70;;
43552;SDS011;29153;42.696;23.218;2022-12-07T16:26:07;23.07;;;10.93;;
43552;SDS011;29153;42.696;23.218;2022-12-07T16:28:36;23.77;;;10.50;;
43552;SDS011;29153;42.696;23.218;2022-12-07T16:31:05;23.12;;;10.23;;
43552;SDS011;29153;42.696;23.218;2022-12-07T16:33:37;20.57;;;9.60;;
43552;SDS011;29153;42.696;23.218;2022-12-07T16:38:33;17.92;;;9.78;;